sensor_id;sensor_type;location;lat;lon;timestamp;P1;durP1;ratioP1;P2;durP2;ratioP2
66175;SDS011;52977;44.816;20.538;2023-08-20T00:02:04;13.13;;;9.20;;
66175;SDS011;52977;44.816;20.538;2023-08-20T00:04:34;14.18;;;9.23;;
66175;SDS011;52977;44.816;20.538;2023-08-20T00:07:02;15.30;;;8.90;;
66175;SDS011;52977;44.816;20.538;2023-08-20T00:09:28;12.05;;;8.95;;
66175;SDS011;52977;44.816;20.538;2023-08-20T00:11:55;13.15;;;8.80;;
66175;SDS011;52977;44.816;20.538;2023-08-20T00:14:21;12.25;;;8.70;;
66175;SDS011;52977;44.816;20.538;2023-08-20T00:17:20;11.75;;;9.10;;
66175;SDS011;52977;44.816;20.538;2023-08-20T00:19:47;13.35;;;9.15;;
66175;SDS011;52977;44.816;20.538;2023-08-20T00:22:13;11.15;;;8.30;;
66175;SDS011;52977;44.816;20.538;2023-08-20T00:24:41;12.75;;;9.13;;
66175;SDS011;52977;44.816;20.538;2023-08-20T00:27:07;12.63;;;9.52;;
66175;SDS011;52977;44.816;20.538;2023-08-20T00:29:33;12.48;;;9.65;;
66175;SDS011;52977;44.816;20.538;2023-08-20T00:32:00;12.65;;;9.18;;
66175;SDS011;52977;44.816;20.538;2023-08-20T00:34:26;14.13;;;8.88;;
66175;SDS011;52977;44.816;20.538;2023-08-20T00:36:52;12.90;;;9.10;;
66175;SDS011;52977;44.816;20.538;2023-08-20T00:39:18;11.88;;;9.05;;
66175;SDS011;52977;44.816;20.538;2023-08-20T00:41:44;14.45;;;9.90;;
66175;SDS011;52977;44.816;20.538;2023-08-20T00:44:11;12.70;;;9.43;;
66175;SDS011;52977;44.816;20.538;2023-08-20T00:46:37;14.32;;;9.60;;
66175;SDS011;52977;44.816;20.538;2023-08-20T00:49:03;16.85;;;10.02;;
66175;SDS011;52977;44.816;20.538;2023-08-20T00:51:32;14.77;;;9.32;;
66175;SDS011;52977;44.816;20.538;2023-08-20T00:53:59;13.80;;;9.77;;
66175;SDS011;52977;44.816;20.538;2023-08-20T00:56:27;17.02;;;10.10;;
66175;SDS011;52977;44.816;20.538;2023-08-20T00:58:54;12.55;;;8.98;;
66175;SDS011;52977;44.816;20.538;2023-08-20T01:01:24;15.07;;;9.70;;
66175;SDS011;52977;44.816;20.538;2023-08-20T01:03:50;15.15;;;9.93;;
66175;SDS011;52977;44.816;20.538;2023-08-20T01:09:06;16.63;;;10.40;;
66175;SDS011;52977;44.816;20.538;2023-08-20T01:11:44;16.83;;;9.88;;
66175;SDS011;52977;44.816;20.538;2023-08-20T01:14:16;15.30;;;10.00;;
66175;SDS011;52977;44.816;20.538;2023-08-20T01:16:43;17.40;;;10.35;;
66175;SDS011;52977;44.816;20.538;2023-08-20T01:19:12;14.50;;;9.82;;
66175;SDS011;52977;44.816;20.538;2023-08-20T01:21:55;17.02;;;9.60;;
66175;SDS011;52977;44.816;20.538;2023-08-20T01:30:02;14.32;;;10.05;;
66175;SDS011;52977;44.816;20.538;2023-08-20T01:32:30;15.63;;;10.32;;
66175;SDS011;52977;44.816;20.538;2023-08-20T01:34:56;16.48;;;11.48;;
66175;SDS011;52977;44.816;20.538;2023-08-20T01:37:22;13.63;;;10.00;;
66175;SDS011;52977;44.816;20.538;2023-08-20T01:39:48;15.80;;;10.45;;
66175;SDS011;52977;44.816;20.538;2023-08-20T01:42:14;17.48;;;10.75;;
66175;SDS011;52977;44.816;20.538;2023-08-20T01:44:40;15.27;;;10.25;;
66175;SDS011;52977;44.816;20.538;2023-08-20T01:47:07;14.52;;;10.55;;
66175;SDS011;52977;44.816;20.538;2023-08-20T01:49:32;18.58;;;10.50;;
66175;SDS011;52977;44.816;20.538;2023-08-20T01:51:58;14.45;;;10.32;;
66175;SDS011;52977;44.816;20.538;2023-08-20T01:54:24;14.75;;;10.70;;
66175;SDS011;52977;44.816;20.538;2023-08-20T01:56:50;16.67;;;10.75;;
66175;SDS011;52977;44.816;20.538;2023-08-20T01:59:15;16.10;;;10.98;;
66175;SDS011;52977;44.816;20.538;2023-08-20T02:04:06;19.27;;;11.63;;
66175;SDS011;52977;44.816;20.538;2023-08-20T02:06:32;15.02;;;10.95;;
66175;SDS011;52977;44.816;20.538;2023-08-20T02:08:58;16.48;;;10.68;;
66175;SDS011;52977;44.816;20.538;2023-08-20T02:11:24;15.55;;;10.05;;
66175;SDS011;52977;44.816;20.538;2023-08-20T02:13:51;14.32;;;10.52;;
66175;SDS011;52977;44.816;20.538;2023-08-20T02:16:17;16.10;;;10.75;;
66175;SDS011;52977;44.816;20.538;2023-08-20T02:18:44;14.25;;;10.40;;
66175;SDS011;52977;44.816;20.538;2023-08-20T02:21:09;14.57;;;10.48;;
66175;SDS011;52977;44.816;20.538;2023-08-20T02:23:35;19.77;;;11.50;;
66175;SDS011;52977;44.816;20.538;2023-08-20T02:26:00;13.20;;;9.63;;
66175;SDS011;52977;44.816;20.538;2023-08-20T02:28:29;15.25;;;11.05;;
66175;SDS011;52977;44.816;20.538;2023-08-20T02:30:54;14.48;;;10.27;;
66175;SDS011;52977;44.816;20.538;2023-08-20T02:33:20;16.38;;;10.68;;
66175;SDS011;52977;44.816;20.538;2023-08-20T02:35:46;16.10;;;11.40;;
66175;SDS011;52977;44.816;20.538;2023-08-20T02:38:11;16.70;;;10.73;;
66175;SDS011;52977;44.816;20.538;2023-08-20T02:40:39;15.25;;;10.63;;
66175;SDS011;52977;44.816;20.538;2023-08-20T02:43:07;17.88;;;11.85;;
66175;SDS011;52977;44.816;20.538;2023-08-20T02:45:33;17.98;;;11.65;;
66175;SDS011;52977;44.816;20.538;2023-08-20T02:48:05;16.70;;;11.50;;
66175;SDS011;52977;44.816;20.538;2023-08-20T02:50:31;19.33;;;12.50;;
66175;SDS011;52977;44.816;20.538;2023-08-20T02:52:57;17.95;;;11.95;;
66175;SDS011;52977;44.816;20.538;2023-08-20T02:55:23;17.70;;;11.98;;
66175;SDS011;52977;44.816;20.538;2023-08-20T02:57:49;23.85;;;14.32;;
66175;SDS011;52977;44.816;20.538;2023-08-20T03:00:15;16.52;;;11.27;;
66175;SDS011;52977;44.816;20.538;2023-08-20T03:02:41;19.10;;;11.77;;
66175;SDS011;52977;44.816;20.538;2023-08-20T03:05:09;18.48;;;11.68;;
66175;SDS011;52977;44.816;20.538;2023-08-20T03:07:35;17.67;;;11.10;;
66175;SDS011;52977;44.816;20.538;2023-08-20T03:10:02;18.85;;;11.85;;
66175;SDS011;52977;44.816;20.538;2023-08-20T03:12:31;17.95;;;11.52;;
66175;SDS011;52977;44.816;20.538;2023-08-20T03:14:58;18.13;;;11.20;;
66175;SDS011;52977;44.816;20.538;2023-08-20T03:17:25;16.75;;;11.30;;
66175;SDS011;52977;44.816;20.538;2023-08-20T03:22:41;17.90;;;10.77;;
66175;SDS011;52977;44.816;20.538;2023-08-20T03:25:07;19.50;;;11.55;;
66175;SDS011;52977;44.816;20.538;2023-08-20T03:27:33;15.55;;;11.30;;
66175;SDS011;52977;44.816;20.538;2023-08-20T03:30:00;14.30;;;10.27;;
66175;SDS011;52977;44.816;20.538;2023-08-20T03:32:28;18.23;;;11.63;;
66175;SDS011;52977;44.816;20.538;2023-08-20T03:34:54;13.93;;;10.70;;
66175;SDS011;52977;44.816;20.538;2023-08-20T03:37:21;16.45;;;11.80;;
66175;SDS011;52977;44.816;20.538;2023-08-20T03:39:48;19.33;;;11.45;;
66175;SDS011;52977;44.816;20.538;2023-08-20T03:42:14;18.55;;;11.43;;
66175;SDS011;52977;44.816;20.538;2023-08-20T03:44:40;16.77;;;10.80;;
66175;SDS011;52977;44.816;20.538;2023-08-20T03:47:07;17.30;;;11.07;;
66175;SDS011;52977;44.816;20.538;2023-08-20T03:49:33;17.30;;;11.82;;
66175;SDS011;52977;44.816;20.538;2023-08-20T03:51:59;14.82;;;10.25;;
66175;SDS011;52977;44.816;20.538;2023-08-20T03:54:28;15.75;;;10.82;;
66175;SDS011;52977;44.816;20.538;2023-08-20T03:56:56;18.58;;;11.07;;
66175;SDS011;52977;44.816;20.538;2023-08-20T03:59:22;16.00;;;11.40;;
66175;SDS011;52977;44.816;20.538;2023-08-20T04:01:50;22.65;;;11.02;;
66175;SDS011;52977;44.816;20.538;2023-08-20T04:04:16;17.67;;;11.63;;
66175;SDS011;52977;44.816;20.538;2023-08-20T04:06:43;18.88;;;11.45;;
66175;SDS011;52977;44.816;20.538;2023-08-20T04:09:09;17.13;;;11.63;;
66175;SDS011;52977;44.816;20.538;2023-08-20T04:11:35;17.10;;;10.60;;
66175;SDS011;52977;44.816;20.538;2023-08-20T04:14:02;14.93;;;10.68;;
66175;SDS011;52977;44.816;20.538;2023-08-20T04:16:29;15.70;;;11.40;;
66175;SDS011;52977;44.816;20.538;2023-08-20T04:18:56;16.27;;;10.82;;
66175;SDS011;52977;44.816;20.538;2023-08-20T04:21:22;17.73;;;11.48;;
66175;SDS011;52977;44.816;20.538;2023-08-20T04:23:48;18.42;;;11.60;;
66175;SDS011;52977;44.816;20.538;2023-08-20T04:26:15;18.38;;;12.27;;
66175;SDS011;52977;44.816;20.538;2023-08-20T04:28:41;18.98;;;11.23;;
66175;SDS011;52977;44.816;20.538;2023-08-20T04:31:08;18.05;;;11.10;;
66175;SDS011;52977;44.816;20.538;2023-08-20T04:33:46;19.15;;;12.50;;
66175;SDS011;52977;44.816;20.538;2023-08-20T04:36:17;19.60;;;11.25;;
66175;SDS011;52977;44.816;20.538;2023-08-20T04:38:42;16.70;;;11.35;;
66175;SDS011;52977;44.816;20.538;2023-08-20T04:41:08;17.27;;;12.27;;
66175;SDS011;52977;44.816;20.538;2023-08-20T04:43:34;17.92;;;12.45;;
66175;SDS011;52977;44.816;20.538;2023-08-20T04:46:00;16.83;;;11.90;;
66175;SDS011;52977;44.816;20.538;2023-08-20T04:48:27;18.90;;;12.60;;
66175;SDS011;52977;44.816;20.538;2023-08-20T04:50:53;18.20;;;12.00;;
66175;SDS011;52977;44.816;20.538;2023-08-20T04:53:19;19.48;;;13.00;;
66175;SDS011;52977;44.816;20.538;2023-08-20T04:55:46;20.38;;;11.90;;
66175;SDS011;52977;44.816;20.538;2023-08-20T04:58:12;20.00;;;12.27;;
66175;SDS011;52977;44.816;20.538;2023-08-20T05:00:38;20.02;;;12.05;;
66175;SDS011;52977;44.816;20.538;2023-08-20T05:03:11;19.55;;;12.35;;
66175;SDS011;52977;44.816;20.538;2023-08-20T05:05:37;22.98;;;13.35;;
66175;SDS011;52977;44.816;20.538;2023-08-20T05:08:03;17.02;;;12.40;;
66175;SDS011;52977;44.816;20.538;2023-08-20T05:10:29;23.05;;;12.98;;
66175;SDS011;52977;44.816;20.538;2023-08-20T05:12:56;19.27;;;12.18;;
66175;SDS011;52977;44.816;20.538;2023-08-20T05:15:22;18.63;;;12.43;;
66175;SDS011;52977;44.816;20.538;2023-08-20T05:17:49;18.98;;;13.25;;
66175;SDS011;52977;44.816;20.538;2023-08-20T05:20:16;24.00;;;14.40;;
66175;SDS011;52977;44.816;20.538;2023-08-20T05:22:43;17.92;;;13.05;;
66175;SDS011;52977;44.816;20.538;2023-08-20T05:25:09;19.15;;;12.73;;
66175;SDS011;52977;44.816;20.538;2023-08-20T05:27:36;23.45;;;13.93;;
66175;SDS011;52977;44.816;20.538;2023-08-20T05:30:02;20.90;;;14.13;;
66175;SDS011;52977;44.816;20.538;2023-08-20T05:32:29;18.58;;;12.13;;
66175;SDS011;52977;44.816;20.538;2023-08-20T05:34:57;23.67;;;14.77;;
66175;SDS011;52977;44.816;20.538;2023-08-20T05:37:23;19.88;;;13.75;;
66175;SDS011;52977;44.816;20.538;2023-08-20T05:39:49;23.05;;;13.95;;
66175;SDS011;52977;44.816;20.538;2023-08-20T05:42:15;18.88;;;12.55;;
66175;SDS011;52977;44.816;20.538;2023-08-20T05:44:46;19.60;;;12.35;;
66175;SDS011;52977;44.816;20.538;2023-08-20T05:47:16;18.65;;;13.23;;
66175;SDS011;52977;44.816;20.538;2023-08-20T05:49:42;20.35;;;14.00;;
66175;SDS011;52977;44.816;20.538;2023-08-20T05:52:08;20.42;;;13.30;;
66175;SDS011;52977;44.816;20.538;2023-08-20T05:54:34;21.27;;;14.13;;
66175;SDS011;52977;44.816;20.538;2023-08-20T05:57:00;25.15;;;13.63;;
66175;SDS011;52977;44.816;20.538;2023-08-20T05:59:27;20.50;;;12.77;;
66175;SDS011;52977;44.816;20.538;2023-08-20T06:01:53;20.65;;;14.45;;
66175;SDS011;52977;44.816;20.538;2023-08-20T06:04:20;23.48;;;14.57;;
66175;SDS011;52977;44.816;20.538;2023-08-20T06:06:45;24.85;;;14.77;;
66175;SDS011;52977;44.816;20.538;2023-08-20T06:09:11;22.05;;;14.23;;
66175;SDS011;52977;44.816;20.538;2023-08-20T06:11:37;22.38;;;14.27;;
66175;SDS011;52977;44.816;20.538;2023-08-20T06:14:02;20.27;;;13.50;;
66175;SDS011;52977;44.816;20.538;2023-08-20T06:16:28;25.17;;;13.93;;
66175;SDS011;52977;44.816;20.538;2023-08-20T06:18:54;19.73;;;13.15;;
66175;SDS011;52977;44.816;20.538;2023-08-20T06:21:19;21.33;;;14.35;;
66175;SDS011;52977;44.816;20.538;2023-08-20T06:23:45;22.92;;;13.30;;
66175;SDS011;52977;44.816;20.538;2023-08-20T06:26:10;18.08;;;12.25;;
66175;SDS011;52977;44.816;20.538;2023-08-20T06:28:36;19.95;;;13.57;;
66175;SDS011;52977;44.816;20.538;2023-08-20T06:31:02;20.75;;;12.75;;
66175;SDS011;52977;44.816;20.538;2023-08-20T06:33:28;19.77;;;13.95;;
66175;SDS011;52977;44.816;20.538;2023-08-20T06:35:54;20.98;;;13.00;;
66175;SDS011;52977;44.816;20.538;2023-08-20T06:38:19;21.30;;;13.05;;
66175;SDS011;52977;44.816;20.538;2023-08-20T06:40:45;19.67;;;13.10;;
66175;SDS011;52977;44.816;20.538;2023-08-20T06:43:10;21.15;;;12.68;;
66175;SDS011;52977;44.816;20.538;2023-08-20T06:45:36;20.73;;;13.18;;
66175;SDS011;52977;44.816;20.538;2023-08-20T06:48:02;19.02;;;13.68;;
66175;SDS011;52977;44.816;20.538;2023-08-20T06:50:28;19.60;;;14.07;;
66175;SDS011;52977;44.816;20.538;2023-08-20T06:52:54;19.60;;;12.68;;
66175;SDS011;52977;44.816;20.538;2023-08-20T06:55:20;21.58;;;12.40;;
66175;SDS011;52977;44.816;20.538;2023-08-20T06:57:46;20.95;;;13.90;;
66175;SDS011;52977;44.816;20.538;2023-08-20T07:00:12;22.85;;;14.43;;
66175;SDS011;52977;44.816;20.538;2023-08-20T07:02:39;21.73;;;13.75;;
66175;SDS011;52977;44.816;20.538;2023-08-20T07:05:04;20.48;;;13.85;;
66175;SDS011;52977;44.816;20.538;2023-08-20T07:07:30;22.63;;;13.43;;
66175;SDS011;52977;44.816;20.538;2023-08-20T07:09:56;18.85;;;12.63;;
66175;SDS011;52977;44.816;20.538;2023-08-20T07:12:22;22.73;;;13.07;;
66175;SDS011;52977;44.816;20.538;2023-08-20T07:14:49;20.67;;;11.90;;
66175;SDS011;52977;44.816;20.538;2023-08-20T07:17:15;19.83;;;12.85;;
66175;SDS011;52977;44.816;20.538;2023-08-20T07:19:41;19.48;;;12.68;;
66175;SDS011;52977;44.816;20.538;2023-08-20T07:22:07;21.02;;;13.98;;
66175;SDS011;52977;44.816;20.538;2023-08-20T07:24:33;19.45;;;13.18;;
66175;SDS011;52977;44.816;20.538;2023-08-20T07:27:01;18.27;;;11.15;;
66175;SDS011;52977;44.816;20.538;2023-08-20T07:29:29;17.30;;;12.25;;
66175;SDS011;52977;44.816;20.538;2023-08-20T07:31:56;19.52;;;11.23;;
66175;SDS011;52977;44.816;20.538;2023-08-20T07:34:23;14.65;;;9.85;;
66175;SDS011;52977;44.816;20.538;2023-08-20T07:36:49;15.18;;;8.93;;
66175;SDS011;52977;44.816;20.538;2023-08-20T07:39:15;15.80;;;10.13;;
66175;SDS011;52977;44.816;20.538;2023-08-20T07:41:41;12.90;;;8.55;;
66175;SDS011;52977;44.816;20.538;2023-08-20T07:44:08;13.20;;;9.15;;
66175;SDS011;52977;44.816;20.538;2023-08-20T07:46:34;12.75;;;7.55;;
66175;SDS011;52977;44.816;20.538;2023-08-20T07:49:00;19.83;;;11.18;;
66175;SDS011;52977;44.816;20.538;2023-08-20T07:51:26;21.73;;;12.55;;
66175;SDS011;52977;44.816;20.538;2023-08-20T07:53:53;21.98;;;12.57;;
66175;SDS011;52977;44.816;20.538;2023-08-20T07:56:19;17.15;;;12.40;;
66175;SDS011;52977;44.816;20.538;2023-08-20T07:58:45;16.40;;;11.63;;
66175;SDS011;52977;44.816;20.538;2023-08-20T08:01:11;17.67;;;10.90;;
66175;SDS011;52977;44.816;20.538;2023-08-20T08:03:39;17.38;;;11.63;;
66175;SDS011;52977;44.816;20.538;2023-08-20T08:06:06;18.70;;;12.13;;
66175;SDS011;52977;44.816;20.538;2023-08-20T08:08:32;16.23;;;11.40;;
66175;SDS011;52977;44.816;20.538;2023-08-20T08:10:58;15.90;;;10.18;;
66175;SDS011;52977;44.816;20.538;2023-08-20T08:13:24;16.73;;;10.10;;
66175;SDS011;52977;44.816;20.538;2023-08-20T08:15:50;23.55;;;11.15;;
66175;SDS011;52977;44.816;20.538;2023-08-20T08:18:20;15.55;;;10.35;;
66175;SDS011;52977;44.816;20.538;2023-08-20T08:20:46;21.20;;;11.05;;
66175;SDS011;52977;44.816;20.538;2023-08-20T08:23:13;16.95;;;10.25;;
66175;SDS011;52977;44.816;20.538;2023-08-20T08:25:39;18.80;;;10.05;;
66175;SDS011;52977;44.816;20.538;2023-08-20T08:28:06;16.70;;;10.50;;
66175;SDS011;52977;44.816;20.538;2023-08-20T08:30:32;18.02;;;10.85;;
66175;SDS011;52977;44.816;20.538;2023-08-20T08:32:59;18.48;;;9.88;;
66175;SDS011;52977;44.816;20.538;2023-08-20T08:35:25;22.50;;;10.20;;
66175;SDS011;52977;44.816;20.538;2023-08-20T08:37:51;13.00;;;9.35;;
66175;SDS011;52977;44.816;20.538;2023-08-20T08:40:17;14.77;;;9.90;;
66175;SDS011;52977;44.816;20.538;2023-08-20T08:42:46;14.50;;;9.55;;
66175;SDS011;52977;44.816;20.538;2023-08-20T08:45:16;13.95;;;10.18;;
66175;SDS011;52977;44.816;20.538;2023-08-20T08:47:44;13.48;;;10.10;;
66175;SDS011;52977;44.816;20.538;2023-08-20T08:50:11;13.20;;;9.50;;
66175;SDS011;52977;44.816;20.538;2023-08-20T08:52:37;16.75;;;9.90;;
66175;SDS011;52977;44.816;20.538;2023-08-20T08:55:05;15.32;;;9.75;;
66175;SDS011;52977;44.816;20.538;2023-08-20T08:57:37;15.40;;;10.30;;
66175;SDS011;52977;44.816;20.538;2023-08-20T09:00:03;17.35;;;10.45;;
66175;SDS011;52977;44.816;20.538;2023-08-20T09:02:31;18.35;;;10.00;;
66175;SDS011;52977;44.816;20.538;2023-08-20T09:04:57;15.90;;;9.20;;
66175;SDS011;52977;44.816;20.538;2023-08-20T09:07:24;12.77;;;8.45;;
66175;SDS011;52977;44.816;20.538;2023-08-20T09:09:50;13.32;;;8.77;;
66175;SDS011;52977;44.816;20.538;2023-08-20T09:12:17;13.32;;;8.88;;
66175;SDS011;52977;44.816;20.538;2023-08-20T09:14:48;14.50;;;9.43;;
66175;SDS011;52977;44.816;20.538;2023-08-20T09:17:16;15.27;;;8.95;;
66175;SDS011;52977;44.816;20.538;2023-08-20T09:19:43;14.40;;;10.38;;
66175;SDS011;52977;44.816;20.538;2023-08-20T09:22:13;12.68;;;9.50;;
66175;SDS011;52977;44.816;20.538;2023-08-20T09:24:41;14.13;;;8.90;;
66175;SDS011;52977;44.816;20.538;2023-08-20T09:27:08;15.13;;;9.48;;
66175;SDS011;52977;44.816;20.538;2023-08-20T09:32:29;15.55;;;8.38;;
66175;SDS011;52977;44.816;20.538;2023-08-20T09:34:55;17.75;;;9.23;;
66175;SDS011;52977;44.816;20.538;2023-08-20T09:37:22;15.27;;;9.77;;
66175;SDS011;52977;44.816;20.538;2023-08-20T09:39:50;16.48;;;9.73;;
66175;SDS011;52977;44.816;20.538;2023-08-20T09:42:17;15.15;;;9.55;;
66175;SDS011;52977;44.816;20.538;2023-08-20T09:44:44;17.52;;;9.60;;
66175;SDS011;52977;44.816;20.538;2023-08-20T09:47:11;14.77;;;8.35;;
66175;SDS011;52977;44.816;20.538;2023-08-20T09:49:40;15.75;;;8.80;;
66175;SDS011;52977;44.816;20.538;2023-08-20T09:52:06;17.30;;;9.25;;
66175;SDS011;52977;44.816;20.538;2023-08-20T09:54:37;19.27;;;8.73;;
66175;SDS011;52977;44.816;20.538;2023-08-20T09:57:12;15.82;;;9.23;;
66175;SDS011;52977;44.816;20.538;2023-08-20T09:59:49;14.50;;;9.90;;
66175;SDS011;52977;44.816;20.538;2023-08-20T10:02:16;13.18;;;9.20;;
66175;SDS011;52977;44.816;20.538;2023-08-20T10:04:42;14.65;;;8.48;;
66175;SDS011;52977;44.816;20.538;2023-08-20T10:07:09;13.65;;;8.50;;
66175;SDS011;52977;44.816;20.538;2023-08-20T10:09:38;12.85;;;9.15;;
66175;SDS011;52977;44.816;20.538;2023-08-20T10:12:06;15.90;;;7.60;;
66175;SDS011;52977;44.816;20.538;2023-08-20T10:14:32;14.02;;;7.68;;
66175;SDS011;52977;44.816;20.538;2023-08-20T10:16:59;11.15;;;7.75;;
66175;SDS011;52977;44.816;20.538;2023-08-20T10:19:31;11.32;;;7.75;;
66175;SDS011;52977;44.816;20.538;2023-08-20T10:21:57;9.82;;;7.10;;
66175;SDS011;52977;44.816;20.538;2023-08-20T10:24:24;12.90;;;8.30;;
66175;SDS011;52977;44.816;20.538;2023-08-20T10:27:06;13.38;;;7.72;;
66175;SDS011;52977;44.816;20.538;2023-08-20T10:29:35;13.00;;;7.95;;
66175;SDS011;52977;44.816;20.538;2023-08-20T10:32:04;12.02;;;7.40;;
66175;SDS011;52977;44.816;20.538;2023-08-20T10:34:32;13.02;;;7.70;;
66175;SDS011;52977;44.816;20.538;2023-08-20T10:37:09;14.07;;;7.97;;
66175;SDS011;52977;44.816;20.538;2023-08-20T10:39:39;13.15;;;7.85;;
66175;SDS011;52977;44.816;20.538;2023-08-20T10:42:28;18.38;;;8.75;;
66175;SDS011;52977;44.816;20.538;2023-08-20T10:45:15;14.95;;;9.05;;
66175;SDS011;52977;44.816;20.538;2023-08-20T10:50:15;12.15;;;7.72;;
66175;SDS011;52977;44.816;20.538;2023-08-20T10:52:46;10.68;;;7.55;;
66175;SDS011;52977;44.816;20.538;2023-08-20T10:55:14;9.60;;;6.72;;
66175;SDS011;52977;44.816;20.538;2023-08-20T10:57:40;10.68;;;6.88;;
66175;SDS011;52977;44.816;20.538;2023-08-20T11:00:07;15.80;;;7.82;;
66175;SDS011;52977;44.816;20.538;2023-08-20T11:05:04;10.18;;;6.50;;
66175;SDS011;52977;44.816;20.538;2023-08-20T11:07:43;11.52;;;7.03;;
66175;SDS011;52977;44.816;20.538;2023-08-20T11:10:11;10.93;;;7.57;;
66175;SDS011;52977;44.816;20.538;2023-08-20T11:12:39;11.13;;;7.20;;
66175;SDS011;52977;44.816;20.538;2023-08-20T11:15:05;12.73;;;7.28;;
66175;SDS011;52977;44.816;20.538;2023-08-20T11:17:32;10.88;;;6.60;;
66175;SDS011;52977;44.816;20.538;2023-08-20T11:19:58;11.35;;;7.22;;
66175;SDS011;52977;44.816;20.538;2023-08-20T11:22:24;15.18;;;8.93;;
66175;SDS011;52977;44.816;20.538;2023-08-20T11:24:50;12.75;;;8.77;;
66175;SDS011;52977;44.816;20.538;2023-08-20T11:27:15;12.90;;;8.15;;
66175;SDS011;52977;44.816;20.538;2023-08-20T11:29:41;12.50;;;7.72;;
66175;SDS011;52977;44.816;20.538;2023-08-20T11:32:09;16.55;;;8.50;;
66175;SDS011;52977;44.816;20.538;2023-08-20T11:34:36;12.68;;;8.32;;
66175;SDS011;52977;44.816;20.538;2023-08-20T11:37:03;15.48;;;8.70;;
66175;SDS011;52977;44.816;20.538;2023-08-20T11:39:30;13.57;;;8.02;;
66175;SDS011;52977;44.816;20.538;2023-08-20T11:41:55;13.23;;;7.95;;
66175;SDS011;52977;44.816;20.538;2023-08-20T11:44:22;9.43;;;7.53;;
66175;SDS011;52977;44.816;20.538;2023-08-20T11:46:48;11.65;;;7.88;;
66175;SDS011;52977;44.816;20.538;2023-08-20T11:49:15;14.77;;;8.30;;
66175;SDS011;52977;44.816;20.538;2023-08-20T11:51:41;12.55;;;7.82;;
66175;SDS011;52977;44.816;20.538;2023-08-20T11:54:14;11.32;;;7.82;;
66175;SDS011;52977;44.816;20.538;2023-08-20T11:56:50;13.05;;;7.70;;
66175;SDS011;52977;44.816;20.538;2023-08-20T11:59:19;12.55;;;7.97;;
66175;SDS011;52977;44.816;20.538;2023-08-20T12:01:52;11.05;;;7.60;;
66175;SDS011;52977;44.816;20.538;2023-08-20T12:04:26;10.07;;;6.90;;
66175;SDS011;52977;44.816;20.538;2023-08-20T12:07:08;9.25;;;6.47;;
66175;SDS011;52977;44.816;20.538;2023-08-20T12:09:35;10.98;;;7.25;;
66175;SDS011;52977;44.816;20.538;2023-08-20T12:12:02;11.00;;;7.70;;
66175;SDS011;52977;44.816;20.538;2023-08-20T12:14:28;11.77;;;7.63;;
66175;SDS011;52977;44.816;20.538;2023-08-20T12:16:56;13.20;;;7.88;;
66175;SDS011;52977;44.816;20.538;2023-08-20T12:19:22;12.38;;;6.05;;
66175;SDS011;52977;44.816;20.538;2023-08-20T12:21:48;11.18;;;6.55;;
66175;SDS011;52977;44.816;20.538;2023-08-20T12:24:15;10.63;;;6.70;;
66175;SDS011;52977;44.816;20.538;2023-08-20T12:26:42;11.45;;;7.85;;
66175;SDS011;52977;44.816;20.538;2023-08-20T12:29:08;11.45;;;6.63;;
66175;SDS011;52977;44.816;20.538;2023-08-20T12:31:35;10.18;;;6.90;;
66175;SDS011;52977;44.816;20.538;2023-08-20T12:34:02;10.50;;;6.93;;
66175;SDS011;52977;44.816;20.538;2023-08-20T12:36:29;13.93;;;7.10;;
66175;SDS011;52977;44.816;20.538;2023-08-20T12:38:55;15.27;;;7.57;;
66175;SDS011;52977;44.816;20.538;2023-08-20T12:41:21;10.52;;;6.57;;
66175;SDS011;52977;44.816;20.538;2023-08-20T12:43:48;9.93;;;6.93;;
66175;SDS011;52977;44.816;20.538;2023-08-20T12:46:14;11.23;;;6.88;;
66175;SDS011;52977;44.816;20.538;2023-08-20T12:48:42;11.07;;;6.88;;
66175;SDS011;52977;44.816;20.538;2023-08-20T12:51:08;10.32;;;6.38;;
66175;SDS011;52977;44.816;20.538;2023-08-20T12:53:38;10.07;;;6.63;;
66175;SDS011;52977;44.816;20.538;2023-08-20T12:56:04;10.63;;;7.07;;
66175;SDS011;52977;44.816;20.538;2023-08-20T12:58:30;10.35;;;7.10;;
66175;SDS011;52977;44.816;20.538;2023-08-20T13:00:56;10.50;;;7.15;;
66175;SDS011;52977;44.816;20.538;2023-08-20T13:03:23;12.45;;;8.25;;
66175;SDS011;52977;44.816;20.538;2023-08-20T13:05:49;10.18;;;7.05;;
66175;SDS011;52977;44.816;20.538;2023-08-20T13:08:15;12.90;;;7.35;;
66175;SDS011;52977;44.816;20.538;2023-08-20T13:10:41;10.05;;;6.72;;
66175;SDS011;52977;44.816;20.538;2023-08-20T13:13:10;10.82;;;6.85;;
66175;SDS011;52977;44.816;20.538;2023-08-20T13:15:38;12.30;;;6.97;;
66175;SDS011;52977;44.816;20.538;2023-08-20T13:18:04;11.93;;;7.00;;
66175;SDS011;52977;44.816;20.538;2023-08-20T13:20:30;13.65;;;6.80;;
66175;SDS011;52977;44.816;20.538;2023-08-20T13:22:56;9.18;;;7.10;;
66175;SDS011;52977;44.816;20.538;2023-08-20T13:25:22;9.27;;;6.35;;
66175;SDS011;52977;44.816;20.538;2023-08-20T13:27:48;11.02;;;7.35;;
66175;SDS011;52977;44.816;20.538;2023-08-20T13:30:14;10.93;;;7.40;;
66175;SDS011;52977;44.816;20.538;2023-08-20T13:32:41;10.32;;;8.18;;
66175;SDS011;52977;44.816;20.538;2023-08-20T13:35:07;10.82;;;7.47;;
66175;SDS011;52977;44.816;20.538;2023-08-20T13:37:33;12.80;;;8.20;;
66175;SDS011;52977;44.816;20.538;2023-08-20T13:40:00;14.30;;;9.68;;
66175;SDS011;52977;44.816;20.538;2023-08-20T13:42:27;12.50;;;8.38;;
66175;SDS011;52977;44.816;20.538;2023-08-20T13:44:53;13.52;;;7.97;;
66175;SDS011;52977;44.816;20.538;2023-08-20T13:47:18;23.80;;;12.57;;
66175;SDS011;52977;44.816;20.538;2023-08-20T13:49:45;17.40;;;12.20;;
66175;SDS011;52977;44.816;20.538;2023-08-20T13:52:11;17.52;;;9.38;;
66175;SDS011;52977;44.816;20.538;2023-08-20T13:54:37;17.48;;;10.73;;
66175;SDS011;52977;44.816;20.538;2023-08-20T13:57:03;15.20;;;8.75;;
66175;SDS011;52977;44.816;20.538;2023-08-20T13:59:30;16.70;;;9.05;;
66175;SDS011;52977;44.816;20.538;2023-08-20T14:01:57;15.63;;;10.70;;
66175;SDS011;52977;44.816;20.538;2023-08-20T14:04:24;11.95;;;8.23;;
66175;SDS011;52977;44.816;20.538;2023-08-20T14:06:50;13.20;;;8.40;;
66175;SDS011;52977;44.816;20.538;2023-08-20T14:09:17;10.68;;;7.78;;
66175;SDS011;52977;44.816;20.538;2023-08-20T14:11:44;15.73;;;9.18;;
66175;SDS011;52977;44.816;20.538;2023-08-20T14:14:10;11.10;;;7.97;;
66175;SDS011;52977;44.816;20.538;2023-08-20T14:16:36;12.43;;;8.20;;
66175;SDS011;52977;44.816;20.538;2023-08-20T14:19:03;11.10;;;7.50;;
66175;SDS011;52977;44.816;20.538;2023-08-20T14:21:29;10.00;;;7.63;;
66175;SDS011;52977;44.816;20.538;2023-08-20T14:23:55;12.30;;;7.57;;
66175;SDS011;52977;44.816;20.538;2023-08-20T14:26:22;10.75;;;7.30;;
66175;SDS011;52977;44.816;20.538;2023-08-20T14:28:48;9.73;;;6.93;;
66175;SDS011;52977;44.816;20.538;2023-08-20T14:31:15;12.13;;;6.90;;
66175;SDS011;52977;44.816;20.538;2023-08-20T14:33:41;10.30;;;7.40;;
66175;SDS011;52977;44.816;20.538;2023-08-20T14:36:07;14.82;;;7.20;;
66175;SDS011;52977;44.816;20.538;2023-08-20T14:38:34;10.07;;;7.05;;